Time;durP1;ratioP1;P1;durP2;ratioP2;P2;SDS_P1;SDS_P2;PMS_P1;PMS_P2;Temp;Humidity;BMP_temperature;BMP_pressure;BME280_temperature;BME280_humidity;BME280_pressure;Samples;Min_cycle;Max_cycle;Signal;HPM_P1;HPM_P2
2023/12/04 00:02:15;;;;;;;22.80;9.90;;;;;;;;;;5044535;28;20474;-65
2023/12/04 00:04:41;;;;;;;20.07;8.57;;;;;;;;;;5041832;28;20029;-73
2023/12/04 00:07:06;;;;;;;20.60;8.70;;;;;;;;;;5038576;28;20025;-71
2023/12/04 00:09:31;;;;;;;21.77;7.87;;;;;;;;;;5038595;28;20095;-72
2023/12/04 00:11:56;;;;;;;27.87;10.13;;;;;;;;;;5042408;28;20105;-71
2023/12/04 00:14:22;;;;;;;22.70;9.47;;;;;;;;;;5033610;28;20041;-73
2023/12/04 00:16:47;;;;;;;31.00;11.53;;;;;;;;;;5044540;28;20032;-75
2023/12/04 00:19:12;;;;;;;26.80;8.70;;;;;;;;;;5034735;28;20053;-74
2023/12/04 00:21:37;;;;;;;36.73;14.33;;;;;;;;;;5039815;28;20076;-74
2023/12/04 00:24:04;;;;;;;26.33;9.33;;;;;;;;;;5045080;28;20421;-72
2023/12/04 00:26:29;;;;;;;31.43;11.27;;;;;;;;;;5034572;28;20489;-71
2023/12/04 00:28:55;;;;;;;31.47;11.67;;;;;;;;;;5036583;28;20029;-70
2023/12/04 00:31:20;;;;;;;32.40;11.37;;;;;;;;;;5037435;28;20111;-71
2023/12/04 00:33:45;;;;;;;26.10;9.43;;;;;;;;;;5037614;28;20072;-72
2023/12/04 00:36:11;;;;;;;29.80;11.03;;;;;;;;;;5038689;28;20024;-71
2023/12/04 00:38:36;;;;;;;40.47;14.53;;;;;;;;;;5034673;28;20413;-73
2023/12/04 00:41:01;;;;;;;22.63;8.67;;;;;;;;;;5040007;28;20028;-71
2023/12/04 00:43:27;;;;;;;29.27;11.20;;;;;;;;;;5040156;28;20317;-71
2023/12/04 00:45:52;;;;;;;23.20;8.90;;;;;;;;;;5036721;28;20751;-71
2023/12/04 00:48:17;;;;;;;27.60;9.53;;;;;;;;;;5039566;28;20225;-73
2023/12/04 00:50:43;;;;;;;42.67;13.40;;;;;;;;;;5040448;28;20400;-70
2023/12/04 00:53:08;;;;;;;25.10;9.43;;;;;;;;;;5037776;28;20402;-71
2023/12/04 00:55:33;;;;;;;26.27;9.70;;;;;;;;;;5042328;28;20025;-70
2023/12/04 00:57:58;;;;;;;26.47;10.13;;;;;;;;;;5045321;28;20465;-70
2023/12/04 01:00:24;;;;;;;26.77;9.67;;;;;;;;;;5042550;28;20397;-70
2023/12/04 01:02:49;;;;;;;22.97;9.13;;;;;;;;;;5041002;28;20041;-74
2023/12/04 01:05:15;;;;;;;27.87;9.17;;;;;;;;;;5039491;28;20025;-72
2023/12/04 01:07:40;;;;;;;35.13;12.70;;;;;;;;;;5040754;28;20130;-73
2023/12/04 01:10:05;;;;;;;22.30;7.37;;;;;;;;;;5039765;28;20022;-70
2023/12/04 01:12:31;;;;;;;28.27;10.33;;;;;;;;;;5037920;28;20021;-70
2023/12/04 01:14:56;;;;;;;37.07;12.73;;;;;;;;;;5043635;28;20024;-65
2023/12/04 01:17:21;;;;;;;36.87;14.00;;;;;;;;;;5037238;28;20100;-64
2023/12/04 01:19:47;;;;;;;28.93;10.03;;;;;;;;;;5038737;28;20462;-66
2023/12/04 01:22:12;;;;;;;23.63;10.37;;;;;;;;;;5031858;28;20025;-65
2023/12/04 01:24:37;;;;;;;23.07;9.03;;;;;;;;;;5038190;28;20036;-64
2023/12/04 01:27:03;;;;;;;13.83;5.77;;;;;;;;;;5039555;28;20021;-66
2023/12/04 01:29:28;;;;;;;24.23;9.03;;;;;;;;;;5034970;28;20025;-65
2023/12/04 01:31:54;;;;;;;36.37;10.00;;;;;;;;;;5038238;28;20500;-65
2023/12/04 01:34:19;;;;;;;26.10;7.37;;;;;;;;;;5033986;28;20104;-64
2023/12/04 01:36:45;;;;;;;18.87;7.80;;;;;;;;;;5038877;28;20105;-67
2023/12/04 01:39:10;;;;;;;33.43;12.23;;;;;;;;;;5036096;28;20075;-64
2023/12/04 01:41:35;;;;;;;35.50;13.10;;;;;;;;;;5033281;28;20104;-67
2023/12/04 01:44:01;;;;;;;28.50;9.73;;;;;;;;;;5037176;28;20017;-67
2023/12/04 01:46:26;;;;;;;34.83;10.50;;;;;;;;;;5037030;28;20396;-66
2023/12/04 01:48:52;;;;;;;17.67;7.50;;;;;;;;;;5036061;28;20415;-65
2023/12/04 01:51:18;;;;;;;28.87;11.17;;;;;;;;;;5038652;28;20029;-65
2023/12/04 01:53:43;;;;;;;32.83;11.30;;;;;;;;;;5037523;28;20037;-65
2023/12/04 01:56:09;;;;;;;19.07;7.13;;;;;;;;;;5038063;28;20033;-65
2023/12/04 01:58:34;;;;;;;20.37;7.87;;;;;;;;;;5039151;28;20037;-65
2023/12/04 02:01:00;;;;;;;31.20;12.50;;;;;;;;;;5039331;28;20155;-65
2023/12/04 02:03:25;;;;;;;22.97;8.33;;;;;;;;;;5039786;28;20030;-66
2023/12/04 02:05:51;;;;;;;22.97;9.17;;;;;;;;;;5041358;28;20013;-65
2023/12/04 02:08:16;;;;;;;34.90;11.43;;;;;;;;;;5042351;28;20515;-66
2023/12/04 02:10:41;;;;;;;34.53;12.70;;;;;;;;;;5039434;28;20029;-63
2023/12/04 02:13:07;;;;;;;28.57;11.07;;;;;;;;;;5037362;28;20037;-65
2023/12/04 02:15:32;;;;;;;33.90;12.50;;;;;;;;;;5037584;28;20179;-66
2023/12/04 02:17:58;;;;;;;40.47;14.80;;;;;;;;;;5040312;28;20047;-65
2023/12/04 02:20:30;;;;;;;27.67;10.57;;;;;;;;;;5035629;28;20020;-67
2023/12/04 02:22:56;;;;;;;33.63;11.90;;;;;;;;;;5040529;28;20085;-65
2023/12/04 02:25:21;;;;;;;26.37;10.70;;;;;;;;;;5036741;28;20040;-66
2023/12/04 02:27:50;;;;;;;31.03;11.80;;;;;;;;;;5035728;28;20025;-66
2023/12/04 02:30:17;;;;;;;18.47;8.07;;;;;;;;;;5037680;28;20339;-66
2023/12/04 02:32:46;;;;;;;23.83;8.87;;;;;;;;;;5047403;28;20025;-65
2023/12/04 02:35:12;;;;;;;20.77;8.10;;;;;;;;;;5042495;28;20555;-66
2023/12/04 02:37:38;;;;;;;30.13;10.07;;;;;;;;;;5038564;28;20045;-66
2023/12/04 02:40:04;;;;;;;30.63;11.60;;;;;;;;;;5039290;28;20497;-67
2023/12/04 02:42:29;;;;;;;25.87;10.57;;;;;;;;;;5037361;28;20143;-65
2023/12/04 02:44:54;;;;;;;26.13;8.90;;;;;;;;;;5034549;28;20025;-65
2023/12/04 02:47:20;;;;;;;33.03;11.87;;;;;;;;;;5039387;28;20362;-66
2023/12/04 02:49:45;;;;;;;28.10;10.63;;;;;;;;;;5037142;28;20026;-64
2023/12/04 02:52:10;;;;;;;17.43;7.40;;;;;;;;;;5033278;28;20092;-64
2023/12/04 02:54:35;;;;;;;27.27;10.63;;;;;;;;;;5032827;28;20026;-67
2023/12/04 02:57:01;;;;;;;41.50;14.03;;;;;;;;;;5036855;28;20017;-65
2023/12/04 02:59:26;;;;;;;32.30;11.63;;;;;;;;;;5035017;28;20104;-66
2023/12/04 03:01:51;;;;;;;30.37;11.03;;;;;;;;;;5040399;28;20024;-63
2023/12/04 03:04:16;;;;;;;27.47;11.50;;;;;;;;;;5034264;28;20029;-65
2023/12/04 03:06:42;;;;;;;29.20;8.73;;;;;;;;;;5034203;28;20060;-65
2023/12/04 03:09:07;;;;;;;37.47;13.40;;;;;;;;;;5035514;28;20029;-65
2023/12/04 03:11:32;;;;;;;37.60;11.87;;;;;;;;;;5036306;28;20521;-66
2023/12/04 03:13:59;;;;;;;18.57;8.00;;;;;;;;;;5035972;28;20049;-64
2023/12/04 03:16:24;;;;;;;43.27;15.17;;;;;;;;;;5035115;28;20028;-66
2023/12/04 03:18:49;;;;;;;29.47;10.27;;;;;;;;;;5037174;28;20017;-67
2023/12/04 03:21:15;;;;;;;22.33;8.13;;;;;;;;;;5035478;28;20028;-64
2023/12/04 03:23:40;;;;;;;30.23;10.17;;;;;;;;;;5039789;28;20148;-65
2023/12/04 03:26:05;;;;;;;29.00;10.87;;;;;;;;;;5035149;28;20024;-65
2023/12/04 03:28:31;;;;;;;27.13;9.73;;;;;;;;;;5036782;28;20162;-66
2023/12/04 03:30:56;;;;;;;33.00;10.97;;;;;;;;;;5036344;28;20036;-64
2023/12/04 03:33:21;;;;;;;23.03;9.23;;;;;;;;;;5037113;28;20033;-73
2023/12/04 03:35:47;;;;;;;20.27;8.03;;;;;;;;;;5042914;28;20127;-72
2023/12/04 03:38:12;;;;;;;26.13;9.13;;;;;;;;;;5053607;28;20518;-73
2023/12/04 03:40:37;;;;;;;34.13;12.60;;;;;;;;;;5040653;28;20151;-71
2023/12/04 03:43:02;;;;;;;32.27;11.67;;;;;;;;;;5039702;28;20031;-71
2023/12/04 03:45:28;;;;;;;39.60;13.60;;;;;;;;;;5034691;28;20045;-73
2023/12/04 03:47:53;;;;;;;28.20;10.57;;;;;;;;;;5044645;28;20057;-73
2023/12/04 03:50:18;;;;;;;27.43;10.47;;;;;;;;;;5040937;28;20362;-72
2023/12/04 03:52:43;;;;;;;30.10;9.73;;;;;;;;;;5036143;28;20114;-71
2023/12/04 03:55:09;;;;;;;35.20;11.33;;;;;;;;;;5037888;28;20025;-72
2023/12/04 03:57:34;;;;;;;34.17;11.10;;;;;;;;;;5042125;28;20398;-71
2023/12/04 03:59:59;;;;;;;36.33;13.03;;;;;;;;;;5040182;28;20029;-72
2023/12/04 04:02:24;;;;;;;33.93;12.13;;;;;;;;;;5039498;28;20108;-73
2023/12/04 04:04:50;;;;;;;34.10;11.70;;;;;;;;;;5037478;28;20021;-73
2023/12/04 04:07:16;;;;;;;30.57;10.77;;;;;;;;;;5039583;28;20071;-71
2023/12/04 04:09:41;;;;;;;29.83;11.27;;;;;;;;;;5039394;28;20033;-73
2023/12/04 04:12:06;;;;;;;24.13;8.93;;;;;;;;;;5040436;28;20056;-70
2023/12/04 04:14:31;;;;;;;25.03;9.43;;;;;;;;;;5040224;28;20030;-72
2023/12/04 04:16:57;;;;;;;32.27;11.73;;;;;;;;;;5041505;28;20030;-73
2023/12/04 04:19:22;;;;;;;21.77;7.67;;;;;;;;;;5038243;28;20029;-72
2023/12/04 04:21:47;;;;;;;28.80;9.73;;;;;;;;;;5041383;28;20024;-73
2023/12/04 04:24:12;;;;;;;24.77;9.50;;;;;;;;;;5039142;28;20109;-69
2023/12/04 04:26:38;;;;;;;27.97;10.50;;;;;;;;;;5038876;28;20025;-70
2023/12/04 04:29:03;;;;;;;35.33;12.70;;;;;;;;;;5037853;28;20236;-71
2023/12/04 04:31:28;;;;;;;34.07;11.80;;;;;;;;;;5037672;28;20061;-74
2023/12/04 04:33:53;;;;;;;18.63;7.90;;;;;;;;;;5041585;28;20033;-73
2023/12/04 04:36:19;;;;;;;40.63;12.77;;;;;;;;;;5040491;28;20366;-74
2023/12/04 04:38:44;;;;;;;36.50;13.93;;;;;;;;;;5039371;28;20027;-70
2023/12/04 04:41:15;;;;;;;25.20;9.27;;;;;;;;;;5037446;28;20025;-73
2023/12/04 04:43:41;;;;;;;34.30;11.98;;;;;;;;;;5040670;28;20029;-66
2023/12/04 04:46:06;;;;;;;31.53;11.93;;;;;;;;;;5038153;28;20047;-66
2023/12/04 04:48:32;;;;;;;31.47;12.73;;;;;;;;;;5037373;28;20108;-65
2023/12/04 04:50:57;;;;;;;32.97;10.70;;;;;;;;;;5035936;28;20025;-65
2023/12/04 04:53:22;;;;;;;33.13;12.30;;;;;;;;;;5034874;28;20080;-66
2023/12/04 04:55:48;;;;;;;24.50;9.70;;;;;;;;;;5040338;28;20021;-66
2023/12/04 04:58:13;;;;;;;19.77;7.80;;;;;;;;;;5037549;28;20017;-66
2023/12/04 05:00:38;;;;;;;34.57;13.37;;;;;;;;;;5037618;28;20096;-66
2023/12/04 05:03:03;;;;;;;21.30;7.87;;;;;;;;;;5043117;28;20021;-65
2023/12/04 05:05:29;;;;;;;30.13;11.70;;;;;;;;;;5034333;28;20030;-65
2023/12/04 05:07:54;;;;;;;30.37;11.30;;;;;;;;;;5039790;28;20044;-68
2023/12/04 05:10:19;;;;;;;28.43;10.93;;;;;;;;;;5038173;28;20025;-66
2023/12/04 05:12:44;;;;;;;25.47;9.23;;;;;;;;;;5042541;28;20080;-66
2023/12/04 05:15:10;;;;;;;24.93;9.90;;;;;;;;;;5038698;28;20099;-65
2023/12/04 05:17:35;;;;;;;34.70;12.30;;;;;;;;;;5036315;28;20009;-65
2023/12/04 05:20:00;;;;;;;23.50;9.23;;;;;;;;;;5037357;28;20024;-65
2023/12/04 05:22:25;;;;;;;28.77;11.67;;;;;;;;;;5035656;28;20381;-66
2023/12/04 05:24:51;;;;;;;19.73;7.67;;;;;;;;;;5039270;28;20021;-67
2023/12/04 05:27:16;;;;;;;19.93;8.10;;;;;;;;;;5035125;28;20025;-66
2023/12/04 05:29:41;;;;;;;22.97;8.93;;;;;;;;;;5037100;28;20029;-65
2023/12/04 05:32:07;;;;;;;22.23;8.87;;;;;;;;;;5037589;28;20056;-65
2023/12/04 05:34:32;;;;;;;16.80;7.10;;;;;;;;;;5038046;28;20417;-66
2023/12/04 05:36:57;;;;;;;21.20;8.00;;;;;;;;;;5034350;28;20152;-68
2023/12/04 05:39:22;;;;;;;33.07;11.57;;;;;;;;;;5036605;28;20025;-67
2023/12/04 05:41:47;;;;;;;21.23;9.03;;;;;;;;;;5040630;28;20030;-65
2023/12/04 05:44:13;;;;;;;19.20;7.60;;;;;;;;;;5035355;28;20382;-65
2023/12/04 05:46:39;;;;;;;23.27;8.37;;;;;;;;;;5037932;28;20040;-67
2023/12/04 05:49:04;;;;;;;20.93;8.80;;;;;;;;;;5031257;28;20038;-65
2023/12/04 05:51:29;;;;;;;20.93;7.87;;;;;;;;;;5035554;28;20404;-65
2023/12/04 05:53:54;;;;;;;31.80;11.73;;;;;;;;;;5035533;28;20032;-70
2023/12/04 05:56:20;;;;;;;31.83;10.27;;;;;;;;;;5040052;28;20067;-72
2023/12/04 05:58:45;;;;;;;20.73;8.20;;;;;;;;;;5028928;28;20358;-72
2023/12/04 06:01:10;;;;;;;19.60;7.10;;;;;;;;;;5036253;28;20031;-73
2023/12/04 06:03:35;;;;;;;28.43;11.33;;;;;;;;;;5036223;28;20071;-69
2023/12/04 06:06:01;;;;;;;18.17;7.23;;;;;;;;;;5041818;28;20030;-72
2023/12/04 06:08:26;;;;;;;29.77;11.33;;;;;;;;;;5031558;28;20033;-74
2023/12/04 06:10:51;;;;;;;26.97;9.33;;;;;;;;;;5035185;28;20128;-75
2023/12/04 06:13:16;;;;;;;25.70;10.87;;;;;;;;;;5040497;28;20037;-74
2023/12/04 06:15:42;;;;;;;25.20;8.57;;;;;;;;;;5039341;28;20475;-74
2023/12/04 06:18:07;;;;;;;26.47;10.30;;;;;;;;;;5036281;28;20067;-72
2023/12/04 06:20:33;;;;;;;32.40;11.40;;;;;;;;;;5032494;28;20056;-71
2023/12/04 06:22:58;;;;;;;28.37;11.33;;;;;;;;;;5031559;28;20029;-72
2023/12/04 06:25:23;;;;;;;68.80;14.43;;;;;;;;;;5036092;28;20039;-71
2023/12/04 06:27:49;;;;;;;21.90;7.73;;;;;;;;;;5035851;28;20022;-73
2023/12/04 06:30:14;;;;;;;27.83;11.27;;;;;;;;;;5034309;28;20059;-71
2023/12/04 06:32:40;;;;;;;27.00;10.93;;;;;;;;;;5037191;28;20033;-71
2023/12/04 06:35:05;;;;;;;17.80;7.73;;;;;;;;;;5036758;28;20512;-72
2023/12/04 06:37:31;;;;;;;27.33;10.57;;;;;;;;;;5036588;28;20235;-72
2023/12/04 06:39:59;;;;;;;18.60;7.60;;;;;;;;;;5034567;28;20147;-70
2023/12/04 06:42:25;;;;;;;23.87;10.47;;;;;;;;;;5034133;28;20453;-73
2023/12/04 06:44:50;;;;;;;26.60;11.10;;;;;;;;;;5037432;28;20040;-74
2023/12/04 06:47:17;;;;;;;23.40;9.77;;;;;;;;;;5033535;28;20036;-71
2023/12/04 06:49:42;;;;;;;19.57;6.77;;;;;;;;;;5036132;28;20120;-73
2023/12/04 06:52:07;;;;;;;25.90;10.30;;;;;;;;;;5035010;28;20124;-72
2023/12/04 06:54:32;;;;;;;16.97;6.03;;;;;;;;;;5036563;28;20033;-71
2023/12/04 06:56:58;;;;;;;21.10;8.33;;;;;;;;;;5034389;28;20021;-73
2023/12/04 06:59:23;;;;;;;20.60;7.00;;;;;;;;;;5031892;28;20426;-70
2023/12/04 07:01:48;;;;;;;21.33;9.23;;;;;;;;;;5036848;28;20024;-72
2023/12/04 07:04:14;;;;;;;19.83;8.30;;;;;;;;;;5040739;28;20060;-67
2023/12/04 07:06:39;;;;;;;21.07;8.97;;;;;;;;;;5034418;28;20030;-67
2023/12/04 07:09:07;;;;;;;9.07;4.07;;;;;;;;;;5028074;28;20025;-66
2023/12/04 07:11:32;;;;;;;20.00;7.93;;;;;;;;;;5037320;28;20033;-66
2023/12/04 07:13:58;;;;;;;18.60;8.17;;;;;;;;;;5041165;28;20052;-67
2023/12/04 07:16:23;;;;;;;10.33;4.10;;;;;;;;;;5033152;28;20021;-66
2023/12/04 07:18:48;;;;;;;21.23;8.37;;;;;;;;;;5031640;28;20051;-64
2023/12/04 07:21:13;;;;;;;21.03;7.07;;;;;;;;;;5030381;28;20021;-65
2023/12/04 07:23:39;;;;;;;16.37;6.53;;;;;;;;;;5039182;28;20027;-67
2023/12/04 07:26:06;;;;;;;20.70;8.57;;;;;;;;;;5036587;28;20116;-66
2023/12/04 07:28:31;;;;;;;16.23;6.47;;;;;;;;;;5031768;28;20497;-65
2023/12/04 07:30:57;;;;;;;7.57;3.60;;;;;;;;;;5031536;28;20029;-66
2023/12/04 07:33:22;;;;;;;20.33;7.97;;;;;;;;;;5034669;28;20033;-65
2023/12/04 07:35:47;;;;;;;14.23;6.43;;;;;;;;;;5036039;28;20033;-66
2023/12/04 07:38:12;;;;;;;12.03;4.83;;;;;;;;;;5033711;28;20365;-65
2023/12/04 07:40:38;;;;;;;17.93;7.97;;;;;;;;;;5032261;28;20068;-66
2023/12/04 07:43:03;;;;;;;16.77;6.10;;;;;;;;;;5035233;28;20390;-66
2023/12/04 07:45:28;;;;;;;19.00;7.53;;;;;;;;;;5039035;28;20042;-67
2023/12/04 07:47:54;;;;;;;10.83;4.67;;;;;;;;;;5035309;28;20029;-66
2023/12/04 07:50:19;;;;;;;15.47;5.87;;;;;;;;;;5031678;28;20041;-67
2023/12/04 07:52:44;;;;;;;20.37;8.00;;;;;;;;;;5034678;28;20516;-65
2023/12/04 07:55:09;;;;;;;18.50;7.63;;;;;;;;;;5034858;28;20029;-66
2023/12/04 07:57:35;;;;;;;16.53;6.40;;;;;;;;;;5036064;28;20108;-65
2023/12/04 08:00:00;;;;;;;16.70;6.57;;;;;;;;;;5037679;28;20358;-66
2023/12/04 08:02:25;;;;;;;22.30;8.00;;;;;;;;;;5033314;28;20015;-65
2023/12/04 08:04:51;;;;;;;15.80;6.63;;;;;;;;;;5034753;28;20117;-65
2023/12/04 08:07:16;;;;;;;17.43;6.77;;;;;;;;;;5030042;28;20025;-66
2023/12/04 08:09:41;;;;;;;17.57;7.50;;;;;;;;;;5037215;28;20033;-66
2023/12/04 08:12:06;;;;;;;14.93;5.73;;;;;;;;;;5034664;28;20028;-66
2023/12/04 08:14:32;;;;;;;18.13;7.20;;;;;;;;;;5034174;28;20033;-66
2023/12/04 08:16:57;;;;;;;13.40;5.23;;;;;;;;;;5032102;28;20026;-67
2023/12/04 08:19:23;;;;;;;16.40;6.43;;;;;;;;;;5033280;28;20025;-67
2023/12/04 08:21:49;;;;;;;9.43;3.90;;;;;;;;;;5038052;28;20028;-65
2023/12/04 08:24:16;;;;;;;15.00;6.07;;;;;;;;;;5036390;28;20033;-65
2023/12/04 08:26:41;;;;;;;8.93;4.23;;;;;;;;;;5039883;28;20478;-65
2023/12/04 08:29:07;;;;;;;12.13;5.07;;;;;;;;;;5030085;28;20045;-66
2023/12/04 08:31:32;;;;;;;13.30;4.87;;;;;;;;;;5039686;28;20382;-66
2023/12/04 08:33:57;;;;;;;10.40;4.27;;;;;;;;;;5040656;28;20025;-70
2023/12/04 08:36:23;;;;;;;7.97;3.87;;;;;;;;;;5036963;28;20033;-71
2023/12/04 08:38:48;;;;;;;12.83;5.17;;;;;;;;;;5034501;28;20104;-69
2023/12/04 08:41:13;;;;;;;15.77;6.10;;;;;;;;;;5038031;28;20060;-71
2023/12/04 08:43:39;;;;;;;15.93;5.47;;;;;;;;;;5037725;28;20029;-72
2023/12/04 08:46:04;;;;;;;8.03;4.37;;;;;;;;;;5043124;28;20028;-70
2023/12/04 08:48:29;;;;;;;10.93;4.77;;;;;;;;;;5033778;28;20029;-71
2023/12/04 08:50:55;;;;;;;9.93;4.47;;;;;;;;;;5038717;28;20367;-70
2023/12/04 08:53:20;;;;;;;9.00;4.13;;;;;;;;;;5037980;28;20475;-71
2023/12/04 08:55:46;;;;;;;10.67;4.97;;;;;;;;;;5038663;28;20029;-71
2023/12/04 08:58:12;;;;;;;10.20;4.93;;;;;;;;;;5036052;28;20052;-73
2023/12/04 09:00:42;;;;;;;15.67;6.03;;;;;;;;;;5038318;28;20057;-73
2023/12/04 09:03:07;;;;;;;12.83;5.43;;;;;;;;;;5037345;28;20100;-71
2023/12/04 09:05:33;;;;;;;16.40;5.33;;;;;;;;;;5038510;28;20112;-73
2023/12/04 09:07:58;;;;;;;9.23;4.00;;;;;;;;;;5036634;28;20384;-72
2023/12/04 09:10:24;;;;;;;15.23;6.53;;;;;;;;;;5039456;28;20199;-70
2023/12/04 09:12:49;;;;;;;16.47;6.47;;;;;;;;;;5037097;28;20036;-71
2023/12/04 09:15:14;;;;;;;11.60;5.07;;;;;;;;;;5034998;28;20634;-72
2023/12/04 09:17:39;;;;;;;10.70;5.00;;;;;;;;;;5038527;28;20036;-73
2023/12/04 09:20:05;;;;;;;11.80;5.63;;;;;;;;;;5040653;28;20029;-72
2023/12/04 09:22:31;;;;;;;13.73;5.73;;;;;;;;;;5035813;28;20033;-72
2023/12/04 09:24:56;;;;;;;8.07;3.97;;;;;;;;;;5032294;28;20147;-72
2023/12/04 09:27:22;;;;;;;15.97;6.27;;;;;;;;;;5034743;28;20025;-71
2023/12/04 09:29:47;;;;;;;11.37;5.63;;;;;;;;;;5041574;28;20469;-71
2023/12/04 09:32:12;;;;;;;12.33;4.93;;;;;;;;;;5034412;28;20055;-69
2023/12/04 09:34:38;;;;;;;7.70;3.63;;;;;;;;;;5037951;28;20123;-70
2023/12/04 09:37:03;;;;;;;12.00;4.67;;;;;;;;;;5036316;28;20513;-73
2023/12/04 09:39:29;;;;;;;10.13;4.67;;;;;;;;;;5034715;28;20269;-74
2023/12/04 09:41:55;;;;;;;10.93;4.53;;;;;;;;;;5036316;28;20032;-72
2023/12/04 09:44:22;;;;;;;15.20;5.77;;;;;;;;;;5037864;28;20155;-66
2023/12/04 09:46:47;;;;;;;8.57;3.40;;;;;;;;;;5031198;28;20389;-65
2023/12/04 09:49:13;;;;;;;7.13;3.33;;;;;;;;;;5037541;28;20113;-66
2023/12/04 09:51:38;;;;;;;13.60;6.23;;;;;;;;;;5035403;28;20204;-67
2023/12/04 09:54:04;;;;;;;12.33;4.33;;;;;;;;;;5035396;28;20033;-66
2023/12/04 09:56:30;;;;;;;9.80;4.20;;;;;;;;;;5035431;28;20107;-65
2023/12/04 09:58:59;;;;;;;9.57;3.73;;;;;;;;;;5035657;28;20044;-65
2023/12/04 10:01:25;;;;;;;9.20;4.20;;;;;;;;;;5034150;28;20030;-64
2023/12/04 10:03:50;;;;;;;8.70;3.53;;;;;;;;;;5035817;28;20052;-65
2023/12/04 10:06:19;;;;;;;12.57;4.73;;;;;;;;;;5037749;28;20418;-65
2023/12/04 10:08:44;;;;;;;10.67;4.57;;;;;;;;;;5037097;28;20033;-65
2023/12/04 10:11:10;;;;;;;10.07;3.87;;;;;;;;;;5036052;28;20395;-66
2023/12/04 10:13:35;;;;;;;9.87;4.23;;;;;;;;;;5034171;28;20017;-65
2023/12/04 10:16:00;;;;;;;9.57;3.73;;;;;;;;;;5035657;28;20060;-66
2023/12/04 10:18:26;;;;;;;9.37;4.20;;;;;;;;;;5039120;28;20069;-66
2023/12/04 10:20:54;;;;;;;10.37;4.10;;;;;;;;;;5036281;28;20107;-66
2023/12/04 10:23:20;;;;;;;12.27;3.57;;;;;;;;;;5033842;28;20047;-65
2023/12/04 10:25:45;;;;;;;14.47;4.57;;;;;;;;;;5037325;28;20017;-65
2023/12/04 10:28:12;;;;;;;8.63;4.07;;;;;;;;;;5037031;28;20501;-67
2023/12/04 10:30:37;;;;;;;11.93;4.93;;;;;;;;;;5038133;28;20029;-67
2023/12/04 10:33:04;;;;;;;12.57;5.43;;;;;;;;;;5032832;28;20043;-67
2023/12/04 10:35:33;;;;;;;9.33;4.70;;;;;;;;;;5034123;28;20040;-65
2023/12/04 10:37:59;;;;;;;12.40;5.53;;;;;;;;;;5039546;28;20032;-67
2023/12/04 10:40:24;;;;;;;12.60;5.07;;;;;;;;;;5034788;28;20025;-66
2023/12/04 10:42:50;;;;;;;7.40;3.97;;;;;;;;;;5036610;28;20036;-66
2023/12/04 10:45:15;;;;;;;10.43;5.00;;;;;;;;;;5033346;28;20473;-68
2023/12/04 10:47:40;;;;;;;9.17;4.00;;;;;;;;;;5039801;28;20033;-66
2023/12/04 10:50:07;;;;;;;10.53;4.37;;;;;;;;;;5037544;28;20056;-66
2023/12/04 10:52:33;;;;;;;6.83;3.33;;;;;;;;;;5035996;28;20404;-67
2023/12/04 10:54:58;;;;;;;11.13;5.13;;;;;;;;;;5029636;28;20474;-69
2023/12/04 10:57:31;;;;;;;7.30;2.83;;;;;;;;;;5037075;28;20048;-70
2023/12/04 10:59:59;;;;;;;11.23;4.77;;;;;;;;;;5037289;28;20158;-73
2023/12/04 11:02:26;;;;;;;7.33;3.63;;;;;;;;;;5036566;28;20029;-72
2023/12/04 11:04:54;;;;;;;9.93;3.70;;;;;;;;;;5035165;28;20535;-72
2023/12/04 11:07:19;;;;;;;7.37;3.20;;;;;;;;;;5036334;28;20469;-72
2023/12/04 11:09:46;;;;;;;7.17;2.97;;;;;;;;;;5035984;28;20036;-71
2023/12/04 11:12:14;;;;;;;11.03;5.50;;;;;;;;;;5035931;28;20110;-73
2023/12/04 11:14:44;;;;;;;9.73;3.90;;;;;;;;;;5034045;28;20029;-72
2023/12/04 11:17:11;;;;;;;9.43;3.97;;;;;;;;;;5036783;28;20048;-72
2023/12/04 11:19:43;;;;;;;9.27;3.93;;;;;;;;;;5035148;28;20029;-72
2023/12/04 11:22:09;;;;;;;7.70;3.60;;;;;;;;;;5037587;28;20032;-72
2023/12/04 11:24:35;;;;;;;6.03;3.17;;;;;;;;;;5033578;28;20445;-72
2023/12/04 11:27:00;;;;;;;13.90;5.13;;;;;;;;;;5034767;28;20575;-74
2023/12/04 11:29:26;;;;;;;6.40;3.27;;;;;;;;;;5034755;28;20043;-71
2023/12/04 11:31:51;;;;;;;11.13;3.80;;;;;;;;;;5030492;28;20490;-73
2023/12/04 11:34:17;;;;;;;6.23;2.90;;;;;;;;;;5038197;28;20029;-70
2023/12/04 11:36:43;;;;;;;8.57;3.90;;;;;;;;;;5034721;28;20483;-72
2023/12/04 11:39:12;;;;;;;10.93;4.93;;;;;;;;;;5032130;28;20033;-70
2023/12/04 11:41:37;;;;;;;5.97;2.67;;;;;;;;;;5046209;28;20045;-72
2023/12/04 11:44:03;;;;;;;13.33;5.50;;;;;;;;;;5033495;28;20025;-71
2023/12/04 11:46:30;;;;;;;11.83;3.53;;;;;;;;;;5035701;28;20029;-71
2023/12/04 11:48:56;;;;;;;11.40;3.80;;;;;;;;;;5035633;28;20048;-72
2023/12/04 11:51:40;;;;;;;7.33;3.50;;;;;;;;;;5031131;28;20025;-71
2023/12/04 11:54:08;;;;;;;8.57;3.67;;;;;;;;;;5027339;28;20487;-72
2023/12/04 11:56:34;;;;;;;9.90;4.43;;;;;;;;;;5040784;28;20052;-72
2023/12/04 11:59:02;;;;;;;5.63;2.83;;;;;;;;;;5043659;28;20021;-71
2023/12/04 12:01:29;;;;;;;6.67;2.37;;;;;;;;;;5034890;28;20028;-74
2023/12/04 12:03:57;;;;;;;10.37;4.80;;;;;;;;;;5035403;28;20029;-74
2023/12/04 12:06:23;;;;;;;9.00;4.10;;;;;;;;;;5037291;28;20454;-70
2023/12/04 12:08:48;;;;;;;6.30;3.00;;;;;;;;;;5040888;28;20033;-70
2023/12/04 12:11:13;;;;;;;11.07;4.90;;;;;;;;;;5040097;28;20060;-72
2023/12/04 12:13:40;;;;;;;11.53;5.60;;;;;;;;;;5036595;28;20055;-72
2023/12/04 12:16:06;;;;;;;10.77;4.87;;;;;;;;;;5037262;28;20496;-73
2023/12/04 12:18:34;;;;;;;7.33;3.27;;;;;;;;;;5040376;28;20029;-74
2023/12/04 12:21:00;;;;;;;9.40;3.80;;;;;;;;;;5039321;28;20504;-71
2023/12/04 12:23:26;;;;;;;8.97;4.07;;;;;;;;;;5038796;28;20032;-70
2023/12/04 12:25:52;;;;;;;13.90;5.67;;;;;;;;;;5036243;28;20470;-71
2023/12/04 12:28:17;;;;;;;11.80;5.43;;;;;;;;;;5038686;28;20028;-71
2023/12/04 12:30:45;;;;;;;9.87;4.47;;;;;;;;;;5038729;28;20044;-73
2023/12/04 12:33:12;;;;;;;8.17;3.30;;;;;;;;;;5037741;28;20095;-72
2023/12/04 12:35:38;;;;;;;9.77;4.57;;;;;;;;;;5036641;28;20032;-72
2023/12/04 12:38:03;;;;;;;12.20;5.23;;;;;;;;;;5041100;28;20422;-70
2023/12/04 12:40:29;;;;;;;7.70;2.80;;;;;;;;;;5033822;28;20021;-72
2023/12/04 12:43:03;;;;;;;14.53;4.47;;;;;;;;;;5036915;28;20021;-69
2023/12/04 12:45:28;;;;;;;11.43;5.53;;;;;;;;;;5038413;28;20653;-72
2023/12/04 12:47:55;;;;;;;8.50;3.83;;;;;;;;;;5040029;28;20024;-73
2023/12/04 12:50:21;;;;;;;8.50;3.77;;;;;;;;;;5035741;28;20481;-73
2023/12/04 12:52:48;;;;;;;7.23;3.27;;;;;;;;;;5031790;28;20092;-72
2023/12/04 12:55:22;;;;;;;9.27;3.83;;;;;;;;;;5041401;28;20037;-73
2023/12/04 12:57:48;;;;;;;8.37;4.23;;;;;;;;;;5036262;28;20024;-70
2023/12/04 13:00:13;;;;;;;11.53;4.47;;;;;;;;;;5039003;28;20112;-69
2023/12/04 13:02:38;;;;;;;10.47;4.67;;;;;;;;;;5034793;28;20018;-70
2023/12/04 13:05:04;;;;;;;9.83;4.27;;;;;;;;;;5036837;28;20047;-71
2023/12/04 13:07:30;;;;;;;11.67;4.97;;;;;;;;;;5041049;28;20020;-71
2023/12/04 13:09:55;;;;;;;5.07;2.57;;;;;;;;;;5035949;28;20029;-72
2023/12/04 13:12:20;;;;;;;10.93;3.97;;;;;;;;;;5033537;28;20052;-75
2023/12/04 13:14:46;;;;;;;7.67;3.73;;;;;;;;;;5034589;28;20017;-69
2023/12/04 13:17:11;;;;;;;7.10;3.07;;;;;;;;;;5035090;28;20014;-72
2023/12/04 13:19:37;;;;;;;4.50;2.60;;;;;;;;;;5040798;28;20629;-72
2023/12/04 13:22:03;;;;;;;6.07;2.60;;;;;;;;;;5033648;28;20049;-70
2023/12/04 13:24:29;;;;;;;7.67;3.67;;;;;;;;;;5036768;28;20087;-69
2023/12/04 13:26:55;;;;;;;7.20;3.13;;;;;;;;;;5038195;28;20033;-75
2023/12/04 13:29:20;;;;;;;8.90;3.23;;;;;;;;;;5039653;28;20024;-71
2023/12/04 13:31:48;;;;;;;6.20;3.40;;;;;;;;;;5035449;28;20033;-72
2023/12/04 13:34:14;;;;;;;8.33;4.03;;;;;;;;;;5036863;28;20052;-71
2023/12/04 13:36:40;;;;;;;6.87;3.63;;;;;;;;;;5044163;28;20041;-73
2023/12/04 13:39:16;;;;;;;6.33;2.73;;;;;;;;;;5036896;28;20021;-69
2023/12/04 13:44:25;;;;;;;9.20;4.40;;;;;;;;;;5035769;28;20024;-71
2023/12/04 13:46:51;;;;;;;6.43;3.17;;;;;;;;;;5036779;28;20025;-70
2023/12/04 13:49:19;;;;;;;9.53;4.37;;;;;;;;;;5036667;28;20045;-71
2023/12/04 13:51:44;;;;;;;9.27;3.00;;;;;;;;;;5036299;28;20516;-71
2023/12/04 13:54:20;;;;;;;9.57;3.70;;;;;;;;;;5037837;28;20028;-71
2023/12/04 13:56:53;;;;;;;8.00;3.83;;;;;;;;;;5035705;28;20022;-73
2023/12/04 13:59:19;;;;;;;7.30;3.30;;;;;;;;;;5036298;28;20028;-70
2023/12/04 14:01:45;;;;;;;11.03;4.40;;;;;;;;;;5039083;28;20056;-70
2023/12/04 14:04:10;;;;;;;10.77;4.90;;;;;;;;;;5035763;28;20027;-70
2023/12/04 14:06:36;;;;;;;6.47;2.90;;;;;;;;;;5036713;28;20033;-72
2023/12/04 14:09:01;;;;;;;8.10;4.03;;;;;;;;;;5041917;28;20378;-70
2023/12/04 14:11:26;;;;;;;6.80;3.07;;;;;;;;;;5031757;28;20040;-70
2023/12/04 14:13:51;;;;;;;7.60;3.70;;;;;;;;;;5034819;28;20036;-71
2023/12/04 14:16:17;;;;;;;7.70;3.90;;;;;;;;;;5035879;28;20040;-73
2023/12/04 14:18:43;;;;;;;8.97;4.07;;;;;;;;;;5033274;28;20025;-71
2023/12/04 14:21:08;;;;;;;9.63;3.40;;;;;;;;;;5034289;28;20029;-72
2023/12/04 14:23:34;;;;;;;4.73;2.33;;;;;;;;;;5051491;28;20039;-70